sensor_id;sensor_type;location;lat;lon;timestamp;P1;durP1;ratioP1;P2;durP2;ratioP2
4132;SDS011;2080;51.038;7.008;2022-09-03T00:01:19;328.67;;;57.63;;
4132;SDS011;2080;51.038;7.008;2022-09-03T00:03:56;322.40;;;57.33;;
4132;SDS011;2080;51.038;7.008;2022-09-03T00:06:30;316.83;;;49.23;;
4132;SDS011;2080;51.038;7.008;2022-09-03T00:14:23;315.93;;;49.30;;
4132;SDS011;2080;51.038;7.008;2022-09-03T00:16:56;313.27;;;52.80;;
4132;SDS011;2080;51.038;7.008;2022-09-03T00:19:34;314.13;;;50.10;;
4132;SDS011;2080;51.038;7.008;2022-09-03T00:22:04;339.87;;;67.63;;
4132;SDS011;2080;51.038;7.008;2022-09-03T00:24:38;319.70;;;56.03;;
4132;SDS011;2080;51.038;7.008;2022-09-03T00:27:07;335.50;;;77.27;;
4132;SDS011;2080;51.038;7.008;2022-09-03T00:29:42;330.30;;;52.50;;
4132;SDS011;2080;51.038;7.008;2022-09-03T00:32:20;374.07;;;110.80;;
4132;SDS011;2080;51.038;7.008;2022-09-03T00:34:54;318.10;;;58.80;;
4132;SDS011;2080;51.038;7.008;2022-09-03T00:37:25;317.53;;;54.40;;
4132;SDS011;2080;51.038;7.008;2022-09-03T00:39:53;319.60;;;47.80;;
4132;SDS011;2080;51.038;7.008;2022-09-03T00:54:00;313.27;;;51.10;;
4132;SDS011;2080;51.038;7.008;2022-09-03T01:10:13;326.33;;;82.50;;
4132;SDS011;2080;51.038;7.008;2022-09-03T01:27:40;333.63;;;70.57;;
4132;SDS011;2080;51.038;7.008;2022-09-03T01:30:14;314.63;;;67.43;;
4132;SDS011;2080;51.038;7.008;2022-09-03T01:33:27;327.93;;;76.07;;
4132;SDS011;2080;51.038;7.008;2022-09-03T01:35:43;349.23;;;92.10;;
4132;SDS011;2080;51.038;7.008;2022-09-03T01:41:00;327.27;;;85.43;;
4132;SDS011;2080;51.038;7.008;2022-09-03T01:44:06;331.27;;;96.90;;
4132;SDS011;2080;51.038;7.008;2022-09-03T01:47:05;333.53;;;93.40;;
4132;SDS011;2080;51.038;7.008;2022-09-03T01:49:52;336.93;;;103.13;;
4132;SDS011;2080;51.038;7.008;2022-09-03T02:00:23;333.97;;;91.73;;
4132;SDS011;2080;51.038;7.008;2022-09-03T02:02:50;346.00;;;99.53;;
4132;SDS011;2080;51.038;7.008;2022-09-03T02:05:26;326.87;;;76.30;;
4132;SDS011;2080;51.038;7.008;2022-09-03T02:07:58;345.47;;;85.40;;
4132;SDS011;2080;51.038;7.008;2022-09-03T02:10:46;314.83;;;67.20;;
4132;SDS011;2080;51.038;7.008;2022-09-03T02:15:47;319.37;;;66.00;;
4132;SDS011;2080;51.038;7.008;2022-09-03T02:18:28;326.43;;;65.90;;
4132;SDS011;2080;51.038;7.008;2022-09-03T02:20:58;326.33;;;65.93;;
4132;SDS011;2080;51.038;7.008;2022-09-03T02:23:26;331.70;;;70.97;;
4132;SDS011;2080;51.038;7.008;2022-09-03T02:25:57;318.80;;;74.93;;
4132;SDS011;2080;51.038;7.008;2022-09-03T02:28:28;325.00;;;67.10;;
4132;SDS011;2080;51.038;7.008;2022-09-03T02:30:59;331.13;;;75.43;;
4132;SDS011;2080;51.038;7.008;2022-09-03T02:33:24;328.07;;;62.80;;
4132;SDS011;2080;51.038;7.008;2022-09-03T02:35:49;320.63;;;65.33;;
4132;SDS011;2080;51.038;7.008;2022-09-03T02:38:16;327.50;;;66.00;;
4132;SDS011;2080;51.038;7.008;2022-09-03T02:40:44;329.40;;;60.40;;
4132;SDS011;2080;51.038;7.008;2022-09-03T02:43:14;322.67;;;63.03;;
4132;SDS011;2080;51.038;7.008;2022-09-03T02:45:47;317.03;;;62.77;;
4132;SDS011;2080;51.038;7.008;2022-09-03T02:48:17;320.17;;;61.90;;
4132;SDS011;2080;51.038;7.008;2022-09-03T02:50:46;321.43;;;68.27;;
4132;SDS011;2080;51.038;7.008;2022-09-03T02:53:15;322.60;;;74.53;;
4132;SDS011;2080;51.038;7.008;2022-09-03T02:55:41;326.23;;;69.00;;
4132;SDS011;2080;51.038;7.008;2022-09-03T02:58:06;325.80;;;80.87;;
4132;SDS011;2080;51.038;7.008;2022-09-03T03:00:34;327.17;;;68.30;;
4132;SDS011;2080;51.038;7.008;2022-09-03T03:03:01;327.00;;;82.67;;
4132;SDS011;2080;51.038;7.008;2022-09-03T03:05:31;331.40;;;74.33;;
4132;SDS011;2080;51.038;7.008;2022-09-03T03:08:06;314.47;;;67.50;;
4132;SDS011;2080;51.038;7.008;2022-09-03T03:10:32;323.33;;;68.90;;
4132;SDS011;2080;51.038;7.008;2022-09-03T03:12:59;317.37;;;60.53;;
4132;SDS011;2080;51.038;7.008;2022-09-03T03:15:24;330.53;;;76.70;;
4132;SDS011;2080;51.038;7.008;2022-09-03T03:17:50;325.27;;;60.77;;
4132;SDS011;2080;51.038;7.008;2022-09-03T03:20:15;324.90;;;74.33;;
4132;SDS011;2080;51.038;7.008;2022-09-03T03:22:41;330.67;;;79.37;;
4132;SDS011;2080;51.038;7.008;2022-09-03T03:25:06;323.17;;;76.07;;
4132;SDS011;2080;51.038;7.008;2022-09-03T03:27:33;338.43;;;82.63;;
4132;SDS011;2080;51.038;7.008;2022-09-03T03:29:59;324.07;;;77.40;;
4132;SDS011;2080;51.038;7.008;2022-09-03T03:32:25;328.73;;;73.80;;
4132;SDS011;2080;51.038;7.008;2022-09-03T03:34:50;329.20;;;81.37;;
4132;SDS011;2080;51.038;7.008;2022-09-03T03:37:18;328.33;;;73.17;;
4132;SDS011;2080;51.038;7.008;2022-09-03T03:39:44;320.50;;;69.23;;
4132;SDS011;2080;51.038;7.008;2022-09-03T03:42:09;320.03;;;70.30;;
4132;SDS011;2080;51.038;7.008;2022-09-03T03:44:34;322.53;;;75.97;;
4132;SDS011;2080;51.038;7.008;2022-09-03T03:47:02;331.20;;;75.40;;
4132;SDS011;2080;51.038;7.008;2022-09-03T03:49:29;336.23;;;78.33;;
4132;SDS011;2080;51.038;7.008;2022-09-03T03:51:57;315.97;;;70.87;;
4132;SDS011;2080;51.038;7.008;2022-09-03T03:54:23;311.87;;;60.57;;
4132;SDS011;2080;51.038;7.008;2022-09-03T03:56:48;333.40;;;65.83;;
4132;SDS011;2080;51.038;7.008;2022-09-03T03:59:13;320.73;;;78.17;;
4132;SDS011;2080;51.038;7.008;2022-09-03T04:01:43;346.27;;;78.53;;
4132;SDS011;2080;51.038;7.008;2022-09-03T04:04:11;310.37;;;58.80;;
4132;SDS011;2080;51.038;7.008;2022-09-03T04:06:36;321.93;;;69.40;;
4132;SDS011;2080;51.038;7.008;2022-09-03T04:09:04;325.97;;;64.70;;
4132;SDS011;2080;51.038;7.008;2022-09-03T04:11:30;339.40;;;72.87;;
4132;SDS011;2080;51.038;7.008;2022-09-03T04:13:55;331.47;;;78.17;;
4132;SDS011;2080;51.038;7.008;2022-09-03T04:16:26;314.83;;;61.47;;
4132;SDS011;2080;51.038;7.008;2022-09-03T04:18:52;318.10;;;58.20;;
4132;SDS011;2080;51.038;7.008;2022-09-03T04:21:22;314.27;;;62.43;;
4132;SDS011;2080;51.038;7.008;2022-09-03T04:23:50;321.80;;;59.60;;
4132;SDS011;2080;51.038;7.008;2022-09-03T04:26:18;310.87;;;60.33;;
4132;SDS011;2080;51.038;7.008;2022-09-03T04:28:46;321.43;;;62.90;;
4132;SDS011;2080;51.038;7.008;2022-09-03T04:31:13;310.90;;;60.97;;
4132;SDS011;2080;51.038;7.008;2022-09-03T04:33:39;314.37;;;60.50;;
4132;SDS011;2080;51.038;7.008;2022-09-03T04:38:45;318.97;;;58.00;;
4132;SDS011;2080;51.038;7.008;2022-09-03T04:41:13;308.80;;;60.90;;
4132;SDS011;2080;51.038;7.008;2022-09-03T04:43:40;315.17;;;59.63;;
4132;SDS011;2080;51.038;7.008;2022-09-03T04:46:10;312.03;;;54.67;;
4132;SDS011;2080;51.038;7.008;2022-09-03T04:48:36;311.90;;;57.77;;
4132;SDS011;2080;51.038;7.008;2022-09-03T04:51:03;318.17;;;57.80;;
4132;SDS011;2080;51.038;7.008;2022-09-03T04:53:37;325.27;;;59.70;;
4132;SDS011;2080;51.038;7.008;2022-09-03T04:56:20;321.83;;;54.73;;
4132;SDS011;2080;51.038;7.008;2022-09-03T04:58:47;314.40;;;66.23;;
4132;SDS011;2080;51.038;7.008;2022-09-03T05:01:19;316.47;;;59.43;;
4132;SDS011;2080;51.038;7.008;2022-09-03T05:03:46;316.87;;;72.80;;
4132;SDS011;2080;51.038;7.008;2022-09-03T05:06:12;310.87;;;57.83;;
4132;SDS011;2080;51.038;7.008;2022-09-03T05:08:37;315.83;;;60.73;;
4132;SDS011;2080;51.038;7.008;2022-09-03T05:11:04;320.03;;;70.83;;
4132;SDS011;2080;51.038;7.008;2022-09-03T05:13:32;318.90;;;62.87;;
4132;SDS011;2080;51.038;7.008;2022-09-03T05:16:01;312.33;;;59.20;;
4132;SDS011;2080;51.038;7.008;2022-09-03T05:18:29;319.77;;;62.93;;
4132;SDS011;2080;51.038;7.008;2022-09-03T05:20:59;317.53;;;59.63;;
4132;SDS011;2080;51.038;7.008;2022-09-03T05:23:25;314.10;;;56.10;;
4132;SDS011;2080;51.038;7.008;2022-09-03T05:25:58;323.10;;;58.67;;
4132;SDS011;2080;51.038;7.008;2022-09-03T05:28:26;309.57;;;56.37;;
4132;SDS011;2080;51.038;7.008;2022-09-03T05:31:00;315.23;;;61.93;;
4132;SDS011;2080;51.038;7.008;2022-09-03T05:33:33;338.00;;;80.10;;
4132;SDS011;2080;51.038;7.008;2022-09-03T05:36:06;328.80;;;87.80;;
4132;SDS011;2080;51.038;7.008;2022-09-03T05:38:36;344.90;;;78.13;;
4132;SDS011;2080;51.038;7.008;2022-09-03T05:41:07;314.07;;;64.37;;
4132;SDS011;2080;51.038;7.008;2022-09-03T05:43:36;325.50;;;81.70;;
4132;SDS011;2080;51.038;7.008;2022-09-03T05:46:08;321.07;;;71.97;;
4132;SDS011;2080;51.038;7.008;2022-09-03T05:48:41;322.90;;;75.80;;
4132;SDS011;2080;51.038;7.008;2022-09-03T05:51:10;324.60;;;80.67;;
4132;SDS011;2080;51.038;7.008;2022-09-03T05:53:39;327.33;;;80.00;;
4132;SDS011;2080;51.038;7.008;2022-09-03T05:56:06;322.77;;;74.77;;
4132;SDS011;2080;51.038;7.008;2022-09-03T05:58:35;317.80;;;74.33;;
4132;SDS011;2080;51.038;7.008;2022-09-03T06:01:15;311.90;;;67.50;;
4132;SDS011;2080;51.038;7.008;2022-09-03T06:03:44;321.20;;;67.83;;
4132;SDS011;2080;51.038;7.008;2022-09-03T06:06:11;315.70;;;65.37;;
4132;SDS011;2080;51.038;7.008;2022-09-03T06:08:40;316.47;;;60.37;;
4132;SDS011;2080;51.038;7.008;2022-09-03T06:11:09;317.37;;;68.53;;
4132;SDS011;2080;51.038;7.008;2022-09-03T06:13:35;319.90;;;76.57;;
4132;SDS011;2080;51.038;7.008;2022-09-03T06:16:06;314.27;;;59.23;;
4132;SDS011;2080;51.038;7.008;2022-09-03T06:18:31;318.33;;;57.77;;
4132;SDS011;2080;51.038;7.008;2022-09-03T06:21:00;323.90;;;59.50;;
4132;SDS011;2080;51.038;7.008;2022-09-03T06:23:33;345.53;;;53.17;;
4132;SDS011;2080;51.038;7.008;2022-09-03T06:28:25;317.37;;;48.73;;
4132;SDS011;2080;51.038;7.008;2022-09-03T06:30:56;317.00;;;50.10;;
4132;SDS011;2080;51.038;7.008;2022-09-03T06:33:22;308.90;;;43.77;;
4132;SDS011;2080;51.038;7.008;2022-09-03T06:35:51;321.87;;;47.37;;
4132;SDS011;2080;51.038;7.008;2022-09-03T06:38:21;309.97;;;44.40;;
4132;SDS011;2080;51.038;7.008;2022-09-03T06:40:58;321.60;;;49.33;;
4132;SDS011;2080;51.038;7.008;2022-09-03T06:43:29;360.33;;;83.65;;
4132;SDS011;2080;51.038;7.008;2022-09-03T06:46:07;314.50;;;46.80;;
4132;SDS011;2080;51.038;7.008;2022-09-03T06:48:36;322.27;;;51.20;;
4132;SDS011;2080;51.038;7.008;2022-09-03T06:53:33;317.50;;;52.10;;
4132;SDS011;2080;51.038;7.008;2022-09-03T06:56:00;305.67;;;48.37;;
4132;SDS011;2080;51.038;7.008;2022-09-03T06:58:30;311.83;;;48.07;;
4132;SDS011;2080;51.038;7.008;2022-09-03T07:03:30;308.67;;;48.33;;
4132;SDS011;2080;51.038;7.008;2022-09-03T07:06:01;322.37;;;48.87;;
4132;SDS011;2080;51.038;7.008;2022-09-03T07:08:29;326.40;;;50.50;;
4132;SDS011;2080;51.038;7.008;2022-09-03T07:10:56;320.00;;;55.40;;
4132;SDS011;2080;51.038;7.008;2022-09-03T07:13:25;319.70;;;60.00;;
4132;SDS011;2080;51.038;7.008;2022-09-03T07:16:00;314.93;;;60.87;;
4132;SDS011;2080;51.038;7.008;2022-09-03T07:18:27;310.27;;;61.30;;
4132;SDS011;2080;51.038;7.008;2022-09-03T07:20:57;324.40;;;56.40;;
4132;SDS011;2080;51.038;7.008;2022-09-03T07:23:30;333.00;;;60.20;;
4132;SDS011;2080;51.038;7.008;2022-09-03T07:25:57;304.07;;;49.07;;
4132;SDS011;2080;51.038;7.008;2022-09-03T07:28:26;308.90;;;47.63;;
4132;SDS011;2080;51.038;7.008;2022-09-03T07:30:53;317.90;;;50.30;;
4132;SDS011;2080;51.038;7.008;2022-09-03T07:33:19;308.63;;;45.20;;
4132;SDS011;2080;51.038;7.008;2022-09-03T07:35:45;308.27;;;44.47;;
4132;SDS011;2080;51.038;7.008;2022-09-03T07:38:15;335.53;;;43.90;;
4132;SDS011;2080;51.038;7.008;2022-09-03T07:40:42;318.07;;;44.57;;
4132;SDS011;2080;51.038;7.008;2022-09-03T07:43:10;309.57;;;41.93;;
4132;SDS011;2080;51.038;7.008;2022-09-03T07:45:39;312.27;;;42.40;;
4132;SDS011;2080;51.038;7.008;2022-09-03T07:48:04;301.93;;;42.57;;
4132;SDS011;2080;51.038;7.008;2022-09-03T07:50:29;318.17;;;43.13;;
4132;SDS011;2080;51.038;7.008;2022-09-03T07:53:01;306.50;;;42.37;;
4132;SDS011;2080;51.038;7.008;2022-09-03T07:55:27;313.43;;;43.60;;
4132;SDS011;2080;51.038;7.008;2022-09-03T07:57:55;332.20;;;47.00;;
4132;SDS011;2080;51.038;7.008;2022-09-03T08:00:21;313.93;;;48.87;;
4132;SDS011;2080;51.038;7.008;2022-09-03T08:02:50;320.77;;;49.97;;
4132;SDS011;2080;51.038;7.008;2022-09-03T08:05:18;326.63;;;50.27;;
4132;SDS011;2080;51.038;7.008;2022-09-03T08:07:45;334.73;;;51.50;;
4132;SDS011;2080;51.038;7.008;2022-09-03T08:10:11;317.43;;;51.57;;
4132;SDS011;2080;51.038;7.008;2022-09-03T08:12:37;328.83;;;50.43;;
4132;SDS011;2080;51.038;7.008;2022-09-03T08:15:02;316.67;;;51.47;;
4132;SDS011;2080;51.038;7.008;2022-09-03T08:17:28;321.10;;;45.00;;
4132;SDS011;2080;51.038;7.008;2022-09-03T08:19:53;304.60;;;42.60;;
4132;SDS011;2080;51.038;7.008;2022-09-03T08:22:23;300.20;;;39.70;;
4132;SDS011;2080;51.038;7.008;2022-09-03T08:24:49;335.77;;;62.43;;
4132;SDS011;2080;51.038;7.008;2022-09-03T08:27:17;300.43;;;39.93;;
4132;SDS011;2080;51.038;7.008;2022-09-03T08:29:48;318.73;;;44.40;;
4132;SDS011;2080;51.038;7.008;2022-09-03T08:32:13;307.87;;;44.30;;
4132;SDS011;2080;51.038;7.008;2022-09-03T08:34:41;313.20;;;45.57;;
4132;SDS011;2080;51.038;7.008;2022-09-03T08:37:06;321.23;;;49.50;;
4132;SDS011;2080;51.038;7.008;2022-09-03T08:39:37;320.00;;;47.33;;
4132;SDS011;2080;51.038;7.008;2022-09-03T08:42:09;342.73;;;51.20;;
4132;SDS011;2080;51.038;7.008;2022-09-03T08:44:45;336.03;;;47.73;;
4132;SDS011;2080;51.038;7.008;2022-09-03T08:50:46;332.60;;;48.77;;
4132;SDS011;2080;51.038;7.008;2022-09-03T08:56:13;319.37;;;49.20;;
4132;SDS011;2080;51.038;7.008;2022-09-03T08:58:45;326.50;;;46.17;;
4132;SDS011;2080;51.038;7.008;2022-09-03T09:01:22;340.53;;;49.30;;
4132;SDS011;2080;51.038;7.008;2022-09-03T09:09:50;313.93;;;42.10;;
4132;SDS011;2080;51.038;7.008;2022-09-03T09:12:40;319.23;;;43.10;;
4132;SDS011;2080;51.038;7.008;2022-09-03T09:15:12;318.60;;;42.67;;
4132;SDS011;2080;51.038;7.008;2022-09-03T09:21:02;309.20;;;41.23;;
4132;SDS011;2080;51.038;7.008;2022-09-03T09:23:37;327.43;;;43.70;;
4132;SDS011;2080;51.038;7.008;2022-09-03T09:26:09;306.73;;;39.57;;
4132;SDS011;2080;51.038;7.008;2022-09-03T09:28:39;320.07;;;40.90;;
4132;SDS011;2080;51.038;7.008;2022-09-03T09:31:10;315.83;;;41.60;;
4132;SDS011;2080;51.038;7.008;2022-09-03T09:33:39;318.03;;;41.63;;
4132;SDS011;2080;51.038;7.008;2022-09-03T09:36:06;306.33;;;42.20;;
4132;SDS011;2080;51.038;7.008;2022-09-03T09:38:39;317.43;;;40.60;;
4132;SDS011;2080;51.038;7.008;2022-09-03T09:41:12;306.33;;;39.67;;
4132;SDS011;2080;51.038;7.008;2022-09-03T09:43:47;303.07;;;38.33;;
4132;SDS011;2080;51.038;7.008;2022-09-03T09:46:26;311.10;;;39.47;;
4132;SDS011;2080;51.038;7.008;2022-09-03T09:52:13;310.00;;;40.90;;
4132;SDS011;2080;51.038;7.008;2022-09-03T09:54:40;319.03;;;41.57;;
4132;SDS011;2080;51.038;7.008;2022-09-03T09:57:16;334.73;;;45.30;;
4132;SDS011;2080;51.038;7.008;2022-09-03T10:00:07;318.00;;;42.73;;
4132;SDS011;2080;51.038;7.008;2022-09-03T10:02:51;327.53;;;51.63;;
4132;SDS011;2080;51.038;7.008;2022-09-03T10:05:19;321.03;;;47.33;;
4132;SDS011;2080;51.038;7.008;2022-09-03T10:10:49;327.93;;;42.20;;
4132;SDS011;2080;51.038;7.008;2022-09-03T10:13:23;323.10;;;53.40;;
4132;SDS011;2080;51.038;7.008;2022-09-03T10:16:09;325.70;;;60.27;;
4132;SDS011;2080;51.038;7.008;2022-09-03T10:18:41;333.70;;;61.40;;
4132;SDS011;2080;51.038;7.008;2022-09-03T10:21:29;337.10;;;58.30;;
4132;SDS011;2080;51.038;7.008;2022-09-03T10:27:06;321.23;;;56.87;;
4132;SDS011;2080;51.038;7.008;2022-09-03T10:29:36;315.20;;;44.20;;
4132;SDS011;2080;51.038;7.008;2022-09-03T11:07:44;322.57;;;47.30;;
4132;SDS011;2080;51.038;7.008;2022-09-03T11:12:43;325.80;;;46.00;;
4132;SDS011;2080;51.038;7.008;2022-09-03T11:15:18;318.07;;;42.40;;
4132;SDS011;2080;51.038;7.008;2022-09-03T11:17:54;313.67;;;40.90;;
4132;SDS011;2080;51.038;7.008;2022-09-03T11:20:25;320.50;;;54.47;;
4132;SDS011;2080;51.038;7.008;2022-09-03T11:23:00;328.33;;;60.13;;
4132;SDS011;2080;51.038;7.008;2022-09-03T11:25:32;316.03;;;56.10;;
4132;SDS011;2080;51.038;7.008;2022-09-03T11:33:58;329.67;;;66.93;;
4132;SDS011;2080;51.038;7.008;2022-09-03T11:36:30;315.17;;;57.87;;
4132;SDS011;2080;51.038;7.008;2022-09-03T11:39:11;332.63;;;74.03;;
4132;SDS011;2080;51.038;7.008;2022-09-03T11:42:01;332.40;;;65.03;;
4132;SDS011;2080;51.038;7.008;2022-09-03T11:44:36;320.30;;;62.37;;
4132;SDS011;2080;51.038;7.008;2022-09-03T11:47:20;337.33;;;69.70;;
4132;SDS011;2080;51.038;7.008;2022-09-03T11:49:48;325.03;;;71.53;;
4132;SDS011;2080;51.038;7.008;2022-09-03T11:52:28;339.00;;;70.70;;
4132;SDS011;2080;51.038;7.008;2022-09-03T11:54:56;335.63;;;60.87;;
4132;SDS011;2080;51.038;7.008;2022-09-03T11:57:24;332.80;;;54.67;;
4132;SDS011;2080;51.038;7.008;2022-09-03T12:02:42;335.70;;;55.40;;
4132;SDS011;2080;51.038;7.008;2022-09-03T12:05:35;319.77;;;53.70;;
4132;SDS011;2080;51.038;7.008;2022-09-03T12:11:21;318.90;;;49.23;;
4132;SDS011;2080;51.038;7.008;2022-09-03T12:19:41;314.80;;;47.60;;
4132;SDS011;2080;51.038;7.008;2022-09-03T12:22:12;323.03;;;52.30;;
4132;SDS011;2080;51.038;7.008;2022-09-03T12:24:41;321.30;;;48.07;;
4132;SDS011;2080;51.038;7.008;2022-09-03T12:27:21;328.47;;;50.80;;
4132;SDS011;2080;51.038;7.008;2022-09-03T12:29:56;338.00;;;51.77;;
4132;SDS011;2080;51.038;7.008;2022-09-03T12:32:24;328.20;;;52.37;;
4132;SDS011;2080;51.038;7.008;2022-09-03T12:34:56;329.50;;;50.20;;
4132;SDS011;2080;51.038;7.008;2022-09-03T12:37:22;336.67;;;46.17;;
4132;SDS011;2080;51.038;7.008;2022-09-03T12:39:53;323.07;;;49.10;;
4132;SDS011;2080;51.038;7.008;2022-09-03T12:42:29;321.53;;;49.70;;
4132;SDS011;2080;51.038;7.008;2022-09-03T12:45:05;317.00;;;49.40;;
4132;SDS011;2080;51.038;7.008;2022-09-03T12:47:37;318.97;;;51.43;;
4132;SDS011;2080;51.038;7.008;2022-09-03T12:50:05;338.93;;;58.90;;
4132;SDS011;2080;51.038;7.008;2022-09-03T12:52:55;342.30;;;53.70;;
4132;SDS011;2080;51.038;7.008;2022-09-03T13:01:09;325.10;;;54.63;;
4132;SDS011;2080;51.038;7.008;2022-09-03T13:03:49;330.63;;;53.57;;
4132;SDS011;2080;51.038;7.008;2022-09-03T13:06:23;329.47;;;52.67;;
4132;SDS011;2080;51.038;7.008;2022-09-03T13:09:02;329.83;;;49.47;;
4132;SDS011;2080;51.038;7.008;2022-09-03T13:11:33;328.17;;;50.40;;
4132;SDS011;2080;51.038;7.008;2022-09-03T13:14:07;321.47;;;50.43;;
4132;SDS011;2080;51.038;7.008;2022-09-03T13:19:54;324.00;;;53.27;;
4132;SDS011;2080;51.038;7.008;2022-09-03T13:24:57;318.20;;;52.27;;
4132;SDS011;2080;51.038;7.008;2022-09-03T13:33:56;330.60;;;52.23;;
4132;SDS011;2080;51.038;7.008;2022-09-03T13:36:30;325.40;;;52.27;;
4132;SDS011;2080;51.038;7.008;2022-09-03T13:39:08;321.00;;;49.80;;
4132;SDS011;2080;51.038;7.008;2022-09-03T13:41:48;326.10;;;50.43;;
4132;SDS011;2080;51.038;7.008;2022-09-03T13:44:23;324.07;;;50.37;;
4132;SDS011;2080;51.038;7.008;2022-09-03T13:47:21;319.57;;;49.00;;
4132;SDS011;2080;51.038;7.008;2022-09-03T13:52:50;329.80;;;53.83;;
4132;SDS011;2080;51.038;7.008;2022-09-03T13:55:24;333.47;;;58.17;;
4132;SDS011;2080;51.038;7.008;2022-09-03T13:57:53;336.13;;;58.13;;
4132;SDS011;2080;51.038;7.008;2022-09-03T14:09:19;330.17;;;54.00;;
4132;SDS011;2080;51.038;7.008;2022-09-03T14:15:00;314.20;;;52.83;;
4132;SDS011;2080;51.038;7.008;2022-09-03T14:17:41;327.97;;;56.90;;
4132;SDS011;2080;51.038;7.008;2022-09-03T14:20:53;333.77;;;66.37;;
4132;SDS011;2080;51.038;7.008;2022-09-03T14:23:28;326.73;;;67.07;;
4132;SDS011;2080;51.038;7.008;2022-09-03T14:26:04;333.07;;;84.93;;
4132;SDS011;2080;51.038;7.008;2022-09-03T14:36:22;346.33;;;97.87;;
4132;SDS011;2080;51.038;7.008;2022-09-03T14:49:09;339.63;;;99.80;;
4132;SDS011;2080;51.038;7.008;2022-09-03T15:10:44;333.33;;;92.07;;
4132;SDS011;2080;51.038;7.008;2022-09-03T15:13:19;340.57;;;93.53;;
4132;SDS011;2080;51.038;7.008;2022-09-03T15:24:02;343.50;;;106.23;;
4132;SDS011;2080;51.038;7.008;2022-09-03T15:35:07;343.37;;;93.20;;
4132;SDS011;2080;51.038;7.008;2022-09-03T15:38:00;333.43;;;87.83;;
4132;SDS011;2080;51.038;7.008;2022-09-03T15:40:54;341.33;;;92.37;;
4132;SDS011;2080;51.038;7.008;2022-09-03T15:43:28;325.50;;;76.17;;
4132;SDS011;2080;51.038;7.008;2022-09-03T15:49:03;320.47;;;77.07;;
4132;SDS011;2080;51.038;7.008;2022-09-03T15:51:34;337.17;;;79.37;;
4132;SDS011;2080;51.038;7.008;2022-09-03T15:56:51;339.67;;;97.10;;
4132;SDS011;2080;51.038;7.008;2022-09-03T16:02:43;338.20;;;83.50;;
4132;SDS011;2080;51.038;7.008;2022-09-03T16:05:46;336.63;;;83.03;;
4132;SDS011;2080;51.038;7.008;2022-09-03T16:08:36;320.43;;;75.03;;
4132;SDS011;2080;51.038;7.008;2022-09-03T16:11:20;329.60;;;71.60;;
4132;SDS011;2080;51.038;7.008;2022-09-03T16:14:49;334.40;;;80.60;;
4132;SDS011;2080;51.038;7.008;2022-09-03T16:19:55;343.97;;;86.57;;
4132;SDS011;2080;51.038;7.008;2022-09-03T16:22:28;339.63;;;99.30;;
4132;SDS011;2080;51.038;7.008;2022-09-03T16:25:00;362.67;;;133.90;;
4132;SDS011;2080;51.038;7.008;2022-09-03T16:27:27;364.33;;;125.33;;
4132;SDS011;2080;51.038;7.008;2022-09-03T16:30:21;361.83;;;118.33;;
4132;SDS011;2080;51.038;7.008;2022-09-03T16:49:38;333.13;;;72.27;;
4132;SDS011;2080;51.038;7.008;2022-09-03T16:52:23;319.77;;;65.03;;
4132;SDS011;2080;51.038;7.008;2022-09-03T17:00:42;326.27;;;63.60;;
4132;SDS011;2080;51.038;7.008;2022-09-03T17:03:51;329.07;;;66.53;;
4132;SDS011;2080;51.038;7.008;2022-09-03T17:25:48;335.50;;;66.80;;
4132;SDS011;2080;51.038;7.008;2022-09-03T17:41:34;314.20;;;41.93;;
4132;SDS011;2080;51.038;7.008;2022-09-03T17:49:57;372.97;;;117.37;;
4132;SDS011;2080;51.038;7.008;2022-09-03T17:58:23;558.83;;;497.00;;
4132;SDS011;2080;51.038;7.008;2022-09-03T18:06:53;445.50;;;373.33;;
4132;SDS011;2080;51.038;7.008;2022-09-03T18:09:29;350.87;;;104.40;;
4132;SDS011;2080;51.038;7.008;2022-09-03T18:12:10;400.77;;;205.20;;
4132;SDS011;2080;51.038;7.008;2022-09-03T18:14:49;368.97;;;139.23;;
4132;SDS011;2080;51.038;7.008;2022-09-03T18:17:24;416.00;;;243.40;;
4132;SDS011;2080;51.038;7.008;2022-09-03T18:20:07;356.43;;;121.27;;
4132;SDS011;2080;51.038;7.008;2022-09-03T18:25:41;453.33;;;300.50;;
4132;SDS011;2080;51.038;7.008;2022-09-03T18:28:32;392.13;;;161.70;;
4132;SDS011;2080;51.038;7.008;2022-09-03T18:31:22;351.20;;;88.67;;
4132;SDS011;2080;51.038;7.008;2022-09-03T18:34:08;496.20;;;429.00;;
4132;SDS011;2080;51.038;7.008;2022-09-03T18:36:55;466.93;;;355.73;;
4132;SDS011;2080;51.038;7.008;2022-09-03T18:39:40;451.20;;;309.40;;
4132;SDS011;2080;51.038;7.008;2022-09-03T18:48:45;489.87;;;431.80;;
4132;SDS011;2080;51.038;7.008;2022-09-03T19:01:40;696.87;;;629.33;;
4132;SDS011;2080;51.038;7.008;2022-09-03T19:11:27;505.27;;;445.33;;
4132;SDS011;2080;51.038;7.008;2022-09-03T19:13:59;493.40;;;426.57;;
4132;SDS011;2080;51.038;7.008;2022-09-03T19:22:35;466.90;;;353.63;;
4132;SDS011;2080;51.038;7.008;2022-09-03T19:25:21;498.00;;;438.70;;
4132;SDS011;2080;51.038;7.008;2022-09-03T19:28:23;481.87;;;396.27;;
4132;SDS011;2080;51.038;7.008;2022-09-03T19:43:08;494.57;;;409.00;;
4132;SDS011;2080;51.038;7.008;2022-09-03T19:46:12;543.03;;;486.33;;
4132;SDS011;2080;51.038;7.008;2022-09-03T19:50:07;536.07;;;475.53;;
4132;SDS011;2080;51.038;7.008;2022-09-03T19:53:11;558.17;;;499.77;;
4132;SDS011;2080;51.038;7.008;2022-09-03T19:55:56;589.60;;;528.30;;
4132;SDS011;2080;51.038;7.008;2022-09-03T19:58:42;746.23;;;678.20;;
4132;SDS011;2080;51.038;7.008;2022-09-03T20:01:37;799.03;;;725.57;;
4132;SDS011;2080;51.038;7.008;2022-09-03T20:04:26;811.47;;;738.43;;
4132;SDS011;2080;51.038;7.008;2022-09-03T20:07:17;783.80;;;711.73;;
4132;SDS011;2080;51.038;7.008;2022-09-03T20:10:04;797.07;;;725.87;;
4132;SDS011;2080;51.038;7.008;2022-09-03T20:15:38;844.80;;;768.03;;
4132;SDS011;2080;51.038;7.008;2022-09-03T20:21:12;775.67;;;706.03;;
4132;SDS011;2080;51.038;7.008;2022-09-03T20:29:28;814.37;;;740.00;;
4132;SDS011;2080;51.038;7.008;2022-09-03T20:32:31;756.03;;;685.73;;
4132;SDS011;2080;51.038;7.008;2022-09-03T20:55:56;740.90;;;672.83;;
4132;SDS011;2080;51.038;7.008;2022-09-03T20:58:38;824.60;;;750.93;;
4132;SDS011;2080;51.038;7.008;2022-09-03T21:01:43;694.57;;;629.40;;
4132;SDS011;2080;51.038;7.008;2022-09-03T21:09:50;796.30;;;725.07;;
4132;SDS011;2080;51.038;7.008;2022-09-03T21:12:31;756.57;;;688.10;;
4132;SDS011;2080;51.038;7.008;2022-09-03T21:15:07;771.30;;;702.20;;
4132;SDS011;2080;51.038;7.008;2022-09-03T21:25:37;809.57;;;738.47;;
4132;SDS011;2080;51.038;7.008;2022-09-03T21:28:39;771.20;;;701.93;;
4132;SDS011;2080;51.038;7.008;2022-09-03T21:31:23;784.57;;;714.23;;
4132;SDS011;2080;51.038;7.008;2022-09-03T21:36:54;777.33;;;707.53;;
4132;SDS011;2080;51.038;7.008;2022-09-03T21:39:29;786.43;;;715.67;;
4132;SDS011;2080;51.038;7.008;2022-09-03T21:42:12;764.67;;;696.03;;
4132;SDS011;2080;51.038;7.008;2022-09-03T21:44:49;805.67;;;734.33;;
4132;SDS011;2080;51.038;7.008;2022-09-03T21:47:19;768.67;;;698.73;;
4132;SDS011;2080;51.038;7.008;2022-09-03T22:01:17;762.93;;;694.63;;
4132;SDS011;2080;51.038;7.008;2022-09-03T22:03:51;817.27;;;744.50;;
4132;SDS011;2080;51.038;7.008;2022-09-03T22:06:19;798.40;;;726.53;;
4132;SDS011;2080;51.038;7.008;2022-09-03T22:09:08;752.40;;;684.03;;
4132;SDS011;2080;51.038;7.008;2022-09-03T22:11:40;795.07;;;724.10;;
4132;SDS011;2080;51.038;7.008;2022-09-03T22:14:17;807.33;;;734.20;;
4132;SDS011;2080;51.038;7.008;2022-09-03T22:19:25;796.30;;;726.23;;
4132;SDS011;2080;51.038;7.008;2022-09-03T22:22:01;771.87;;;701.83;;